Time;durP1;ratioP1;P1;durP2;ratioP2;P2;SDS_P1;SDS_P2;PMS_P1;PMS_P2;Temp;Humidity;BMP_temperature;BMP_pressure;BME280_temperature;BME280_humidity;BME280_pressure;Samples;Min_cycle;Max_cycle;Signal;HPM_P1;HPM_P2
2022/12/29 00:01:49;;;;;;;10.13;7.77;;;;;;;;;;5068817;28;20051;-67
2022/12/29 00:04:15;;;;;;;10.43;7.93;;;;;;;;;;5051487;28;20037;-67
2022/12/29 00:06:42;;;;;;;8.50;6.57;;;;;;;;;;5050896;28;20045;-67
2022/12/29 00:09:08;;;;;;;9.87;6.90;;;;;;;;;;5051591;28;20049;-67
2022/12/29 00:11:34;;;;;;;11.13;6.97;;;;;;;;;;5050948;28;20455;-67
2022/12/29 00:16:45;;;;;;;8.63;6.93;;;;;;;;;;5051399;28;20053;-67
2022/12/29 00:35:54;;;;;;;11.03;6.97;;;;;;;;;;5050380;28;20200;-67
2022/12/29 00:44:06;;;;;;;8.83;5.70;;;;;;;;;;5051329;28;20049;-67
2022/12/29 00:46:36;;;;;;;7.10;5.63;;;;;;;;;;5050895;28;20545;-66
2022/12/29 00:51:47;;;;;;;14.17;6.80;;;;;;;;;;5050922;28;20049;-67
2022/12/29 00:54:14;;;;;;;9.13;4.87;;;;;;;;;;5050617;28;20103;-67
2022/12/29 00:56:40;;;;;;;5.87;4.73;;;;;;;;;;5049936;28;20128;-67
2022/12/29 00:59:07;;;;;;;6.80;5.50;;;;;;;;;;5064350;28;20127;-67
2022/12/29 01:01:34;;;;;;;9.43;5.17;;;;;;;;;;5070744;28;20500;-67
2022/12/29 01:04:00;;;;;;;5.37;4.03;;;;;;;;;;5070762;28;20050;-67
2022/12/29 01:06:26;;;;;;;7.77;4.87;;;;;;;;;;5069607;28;20131;-66
2022/12/29 01:11:37;;;;;;;4.90;3.97;;;;;;;;;;5052525;28;20199;-67
2022/12/29 01:14:03;;;;;;;5.80;3.67;;;;;;;;;;5050622;28;20037;-67
2022/12/29 01:16:29;;;;;;;7.37;4.73;;;;;;;;;;5050415;28;20052;-67
2022/12/29 01:18:55;;;;;;;6.33;3.93;;;;;;;;;;5048985;28;20045;-67
2022/12/29 01:21:21;;;;;;;5.23;3.57;;;;;;;;;;5050201;28;20067;-67
2022/12/29 01:23:47;;;;;;;6.93;3.90;;;;;;;;;;5050362;28;20045;-66
2022/12/29 01:26:14;;;;;;;7.33;4.57;;;;;;;;;;5064972;28;20048;-66
2022/12/29 01:28:41;;;;;;;5.63;3.50;;;;;;;;;;5049634;28;20411;-66
2022/12/29 01:31:07;;;;;;;5.33;3.50;;;;;;;;;;5048723;28;20490;-66
2022/12/29 01:33:33;;;;;;;4.90;3.50;;;;;;;;;;5049874;28;20124;-67
2022/12/29 01:36:03;;;;;;;5.70;3.43;;;;;;;;;;5048934;28;20463;-67
2022/12/29 01:38:30;;;;;;;5.77;4.00;;;;;;;;;;5049551;28;20500;-67
2022/12/29 01:40:56;;;;;;;4.97;3.73;;;;;;;;;;5048646;28;20056;-67
2022/12/29 01:43:22;;;;;;;5.97;3.40;;;;;;;;;;5049765;28;20041;-66
2022/12/29 01:45:50;;;;;;;7.37;3.80;;;;;;;;;;5050589;28;20055;-66
2022/12/29 01:48:17;;;;;;;4.23;3.47;;;;;;;;;;5049727;28;20059;-67
2022/12/29 01:50:46;;;;;;;6.63;3.50;;;;;;;;;;5049780;28;20045;-66
2022/12/29 01:53:16;;;;;;;8.70;3.47;;;;;;;;;;5048197;28;20064;-67
2022/12/29 01:55:48;;;;;;;5.17;2.90;;;;;;;;;;5049918;28;20087;-67
2022/12/29 01:58:15;;;;;;;4.13;2.77;;;;;;;;;;5056651;28;20052;-67
2022/12/29 02:00:41;;;;;;;5.57;3.00;;;;;;;;;;5067847;28;20044;-67
2022/12/29 02:03:08;;;;;;;4.30;2.93;;;;;;;;;;5049473;28;20136;-66
2022/12/29 02:05:43;;;;;;;7.93;3.00;;;;;;;;;;5048240;28;20056;-66
2022/12/29 02:08:09;;;;;;;4.77;2.87;;;;;;;;;;5053756;28;20047;-66
2022/12/29 02:10:36;;;;;;;4.73;2.63;;;;;;;;;;5060319;28;20037;-66
2022/12/29 02:13:02;;;;;;;4.30;3.10;;;;;;;;;;5061165;28;20056;-66
2022/12/29 02:15:35;;;;;;;3.73;2.80;;;;;;;;;;5063553;28;20044;-66
2022/12/29 02:18:08;;;;;;;5.05;3.05;;;;;;;;;;5050470;28;20053;-67
2022/12/29 02:20:34;;;;;;;;;;;;;;;;;;5048117;28;20090;-67
2022/12/29 02:23:19;;;;;;;6.97;4.17;;;;;;;;;;5050779;28;19920;-67
2022/12/29 02:26:04;;;;;;;7.10;3.97;;;;;;;;;;5067066;28;20082;-67
2022/12/29 02:28:38;;;;;;;9.60;4.27;;;;;;;;;;5061524;28;20045;-68
2022/12/29 02:31:23;;;;;;;6.90;4.50;;;;;;;;;;5047472;28;20049;-67
2022/12/29 02:34:01;;;;;;;4.93;3.50;;;;;;;;;;5047536;28;20079;-68
2022/12/29 02:36:39;;;;;;;6.23;4.20;;;;;;;;;;5064739;28;20398;-67
2022/12/29 02:39:15;;;;;;;7.40;4.77;;;;;;;;;;5068560;28;20411;-67
2022/12/29 02:42:00;;;;;;;6.17;4.50;;;;;;;;;;5053172;28;20078;-68
2022/12/29 02:44:35;;;;;;;11.73;4.03;;;;;;;;;;5048544;28;20053;-67
2022/12/29 02:47:09;;;;;;;7.53;3.83;;;;;;;;;;5048531;28;20487;-67
2022/12/29 02:49:39;;;;;;;6.97;4.63;;;;;;;;;;5047213;28;20056;-67
2022/12/29 02:52:10;;;;;;;13.93;4.40;;;;;;;;;;5048058;28;20423;-68
2022/12/29 02:54:43;;;;;;;7.07;4.00;;;;;;;;;;5047255;28;20045;-67
2022/12/29 02:57:29;;;;;;;5.97;4.27;;;;;;;;;;5048628;28;20041;-67
2022/12/29 03:00:10;;;;;;;5.50;3.60;;;;;;;;;;5048041;28;20088;-67
2022/12/29 03:02:54;;;;;;;5.77;3.20;;;;;;;;;;5048491;28;20060;-67
2022/12/29 03:05:20;;;;;;;8.00;3.10;;;;;;;;;;5052063;28;20089;-67
2022/12/29 03:08:01;;;;;;;7.30;3.03;;;;;;;;;;5052769;28;20084;-67
2022/12/29 03:10:36;;;;;;;5.20;2.50;;;;;;;;;;5051717;28;20538;-67
2022/12/29 03:16:03;;;;;;;4.20;2.77;;;;;;;;;;5052231;28;20053;-67
2022/12/29 03:18:38;;;;;;;6.97;2.73;;;;;;;;;;5071248;28;20056;-67
2022/12/29 03:21:08;;;;;;;4.80;2.30;;;;;;;;;;5072529;28;20409;-67
2022/12/29 03:23:35;;;;;;;4.40;3.40;;;;;;;;;;5066957;28;20745;-67
2022/12/29 03:26:02;;;;;;;5.43;2.50;;;;;;;;;;5071948;28;20041;-67
2022/12/29 03:28:31;;;;;;;5.33;3.00;;;;;;;;;;5061404;28;20036;-67
2022/12/29 03:30:58;;;;;;;4.50;2.90;;;;;;;;;;5069578;28;20135;-67
2022/12/29 03:33:25;;;;;;;5.87;2.63;;;;;;;;;;5067474;28;20973;-67
2022/12/29 03:35:53;;;;;;;4.33;2.20;;;;;;;;;;5050750;28;20075;-67
2022/12/29 03:38:25;;;;;;;13.43;2.30;;;;;;;;;;5052035;28;20110;-67
2022/12/29 03:40:57;;;;;;;4.40;1.77;;;;;;;;;;5050182;28;20045;-67
2022/12/29 03:43:23;;;;;;;10.67;3.27;;;;;;;;;;5059432;28;20036;-66
2022/12/29 03:45:49;;;;;;;5.00;1.83;;;;;;;;;;5065150;28;20490;-66
2022/12/29 03:48:15;;;;;;;9.57;2.60;;;;;;;;;;5051777;28;20081;-67
2022/12/29 03:50:41;;;;;;;4.93;1.60;;;;;;;;;;5051809;28;20077;-66
2022/12/29 03:53:07;;;;;;;6.67;2.13;;;;;;;;;;5051443;28;20398;-67
2022/12/29 03:55:33;;;;;;;5.70;2.00;;;;;;;;;;5050623;28;20041;-68
2022/12/29 03:57:59;;;;;;;8.37;2.10;;;;;;;;;;5050468;28;20049;-67
2022/12/29 04:00:25;;;;;;;14.50;2.10;;;;;;;;;;5051859;28;20048;-68
2022/12/29 04:02:52;;;;;;;33.27;4.10;;;;;;;;;;5051485;28;20045;-69
2022/12/29 04:05:18;;;;;;;9.00;3.57;;;;;;;;;;5051549;28;20049;-68
2022/12/29 04:07:44;;;;;;;6.93;2.50;;;;;;;;;;5051473;28;20045;-67
2022/12/29 04:10:10;;;;;;;7.03;2.27;;;;;;;;;;5051361;28;20040;-66
2022/12/29 04:12:36;;;;;;;5.43;2.03;;;;;;;;;;5051311;28;20083;-67
2022/12/29 04:15:02;;;;;;;3.87;1.57;;;;;;;;;;5051015;28;20052;-67
2022/12/29 04:17:28;;;;;;;5.13;1.80;;;;;;;;;;5051102;28;20585;-67
2022/12/29 04:20:59;;;;;;;6.90;1.57;;;;;;;;;;5051350;28;20064;-67
2022/12/29 04:22:40;;;;;;;6.00;1.47;;;;;;;;;;5059986;28;20037;-67
2022/12/29 04:25:07;;;;;;;3.37;1.17;;;;;;;;;;5071315;28;20037;-67
2022/12/29 04:27:33;;;;;;;7.73;2.30;;;;;;;;;;5070867;28;20045;-67
2022/12/29 04:29:59;;;;;;;3.50;1.30;;;;;;;;;;5071036;28;20051;-67
2022/12/29 04:32:25;;;;;;;8.23;1.87;;;;;;;;;;5068357;28;20052;-66
2022/12/29 04:34:51;;;;;;;8.80;1.80;;;;;;;;;;5067004;28;20043;-67
2022/12/29 04:37:17;;;;;;;6.90;1.40;;;;;;;;;;5067589;28;20120;-66
2022/12/29 04:39:43;;;;;;;10.00;1.63;;;;;;;;;;5067763;28;20160;-67
2022/12/29 04:42:09;;;;;;;8.07;1.67;;;;;;;;;;5070551;28;20226;-67
2022/12/29 04:44:35;;;;;;;11.00;2.43;;;;;;;;;;5051048;28;20627;-67
2022/12/29 04:47:01;;;;;;;7.67;1.53;;;;;;;;;;5068948;28;20048;-67
2022/12/29 04:49:27;;;;;;;8.40;1.37;;;;;;;;;;5056747;28;20075;-67
2022/12/29 04:51:53;;;;;;;8.23;1.83;;;;;;;;;;5057744;28;20052;-67
2022/12/29 04:54:19;;;;;;;8.80;1.67;;;;;;;;;;5058250;28;20081;-66
2022/12/29 04:56:45;;;;;;;7.40;1.40;;;;;;;;;;5070641;28;20052;-67
2022/12/29 04:59:11;;;;;;;4.73;1.20;;;;;;;;;;5069188;28;20048;-66
2022/12/29 05:01:37;;;;;;;9.33;2.03;;;;;;;;;;5070747;28;20526;-67
2022/12/29 05:04:03;;;;;;;5.00;1.77;;;;;;;;;;5070208;28;20048;-66
2022/12/29 05:06:29;;;;;;;6.03;1.40;;;;;;;;;;5061783;28;20048;-67
2022/12/29 05:08:55;;;;;;;8.40;1.43;;;;;;;;;;5062276;28;20056;-67
2022/12/29 05:11:21;;;;;;;10.20;1.40;;;;;;;;;;5070422;28;20040;-66
2022/12/29 05:13:47;;;;;;;8.13;1.87;;;;;;;;;;5070724;28;20052;-67
2022/12/29 05:16:13;;;;;;;8.80;2.00;;;;;;;;;;5068663;28;20686;-67
2022/12/29 05:18:39;;;;;;;4.93;1.17;;;;;;;;;;5068920;28;20417;-66
2022/12/29 05:21:05;;;;;;;7.50;1.93;;;;;;;;;;5069873;28;20052;-66
2022/12/29 05:23:31;;;;;;;7.13;1.63;;;;;;;;;;5070228;28;20467;-67
2022/12/29 05:25:57;;;;;;;9.03;1.57;;;;;;;;;;5069372;28;20079;-67
2022/12/29 05:28:23;;;;;;;9.17;1.47;;;;;;;;;;5068882;28;20048;-66
2022/12/29 05:30:50;;;;;;;8.77;1.40;;;;;;;;;;5069715;28;20529;-66
2022/12/29 05:33:17;;;;;;;6.37;1.53;;;;;;;;;;5069775;28;20441;-67
2022/12/29 05:35:43;;;;;;;5.33;1.90;;;;;;;;;;5069963;28;20049;-66
2022/12/29 05:38:09;;;;;;;8.70;1.83;;;;;;;;;;5069478;28;20048;-66
2022/12/29 05:40:35;;;;;;;8.13;2.03;;;;;;;;;;5069245;28;20055;-66
2022/12/29 05:43:01;;;;;;;7.27;1.40;;;;;;;;;;5059109;28;20045;-66
2022/12/29 05:45:27;;;;;;;5.77;1.53;;;;;;;;;;5047872;28;20418;-66
2022/12/29 05:47:53;;;;;;;6.43;1.57;;;;;;;;;;5048154;28;20583;-66
2022/12/29 05:50:19;;;;;;;5.70;1.53;;;;;;;;;;5049352;28;20403;-66
2022/12/29 05:52:45;;;;;;;7.03;1.90;;;;;;;;;;5049331;28;20498;-66
2022/12/29 05:55:12;;;;;;;4.97;1.50;;;;;;;;;;5049214;28;20103;-66
2022/12/29 05:57:38;;;;;;;4.67;1.70;;;;;;;;;;5048307;28;20052;-66
2022/12/29 06:00:05;;;;;;;11.83;1.70;;;;;;;;;;5049928;28;20728;-66
2022/12/29 06:02:31;;;;;;;4.87;1.50;;;;;;;;;;5049588;28;20400;-66
2022/12/29 06:04:57;;;;;;;10.20;2.33;;;;;;;;;;5048715;28;20478;-66
2022/12/29 06:07:23;;;;;;;9.30;2.40;;;;;;;;;;5049165;28;20080;-66
2022/12/29 06:09:49;;;;;;;11.90;1.70;;;;;;;;;;5049285;28;20132;-66
2022/12/29 06:12:15;;;;;;;8.53;1.50;;;;;;;;;;5049143;28;20041;-66
2022/12/29 06:14:41;;;;;;;7.93;1.50;;;;;;;;;;5049281;28;20476;-66
2022/12/29 06:17:07;;;;;;;8.47;1.77;;;;;;;;;;5049217;28;20037;-66
2022/12/29 06:19:33;;;;;;;11.00;1.77;;;;;;;;;;5049150;28;20044;-66
2022/12/29 06:21:59;;;;;;;13.13;1.90;;;;;;;;;;5031256;28;20049;-66
2022/12/29 06:24:25;;;;;;;7.20;1.63;;;;;;;;;;5048575;28;20041;-65
2022/12/29 06:26:51;;;;;;;8.23;1.80;;;;;;;;;;5048847;28;20053;-66
2022/12/29 06:29:17;;;;;;;8.30;1.30;;;;;;;;;;5048420;28;20529;-66
2022/12/29 06:31:45;;;;;;;6.43;1.30;;;;;;;;;;5048925;28;20938;-66
2022/12/29 06:34:12;;;;;;;8.07;2.10;;;;;;;;;;5062992;28;20049;-66
2022/12/29 06:36:38;;;;;;;5.27;1.20;;;;;;;;;;5069052;28;20049;-66
2022/12/29 06:39:04;;;;;;;7.00;1.60;;;;;;;;;;5068255;28;20044;-66
2022/12/29 06:41:30;;;;;;;7.67;2.07;;;;;;;;;;5067618;28;20769;-65
2022/12/29 06:43:56;;;;;;;6.83;1.83;;;;;;;;;;5052151;28;20048;-66
2022/12/29 06:46:22;;;;;;;8.50;1.80;;;;;;;;;;5048677;28;20056;-66
2022/12/29 06:48:48;;;;;;;6.73;2.70;;;;;;;;;;5047655;28;20053;-66
2022/12/29 06:51:14;;;;;;;7.47;1.57;;;;;;;;;;5047715;28;20056;-65
2022/12/29 06:53:40;;;;;;;10.07;1.60;;;;;;;;;;5068102;28;20041;-66
2022/12/29 06:56:06;;;;;;;9.73;2.47;;;;;;;;;;5068427;28;20041;-65
2022/12/29 06:58:32;;;;;;;9.50;2.00;;;;;;;;;;5068566;28;20410;-66
2022/12/29 07:00:58;;;;;;;6.53;2.00;;;;;;;;;;5068311;28;20052;-66
2022/12/29 07:03:25;;;;;;;8.77;1.70;;;;;;;;;;5068543;28;20055;-65
2022/12/29 07:05:51;;;;;;;12.37;3.10;;;;;;;;;;5068813;28;20045;-65
2022/12/29 07:08:17;;;;;;;11.70;2.13;;;;;;;;;;5067427;28;20455;-65
2022/12/29 07:10:43;;;;;;;13.57;2.07;;;;;;;;;;5068767;28;20041;-65
2022/12/29 07:13:09;;;;;;;13.93;2.50;;;;;;;;;;5052270;28;20037;-65
2022/12/29 07:15:36;;;;;;;12.73;2.03;;;;;;;;;;5047858;28;20056;-65
2022/12/29 07:18:03;;;;;;;12.13;2.30;;;;;;;;;;5054766;28;20515;-65
2022/12/29 07:20:29;;;;;;;9.40;2.03;;;;;;;;;;5068402;28;20052;-65
2022/12/29 07:22:55;;;;;;;16.83;2.40;;;;;;;;;;5068215;28;20558;-65
2022/12/29 07:25:22;;;;;;;12.33;1.93;;;;;;;;;;5067384;28;20078;-66
2022/12/29 07:27:48;;;;;;;10.53;1.93;;;;;;;;;;5055206;28;20049;-65
2022/12/29 07:30:14;;;;;;;11.47;1.70;;;;;;;;;;5055087;28;20045;-65
2022/12/29 07:32:40;;;;;;;16.23;3.07;;;;;;;;;;5058899;28;20037;-66
2022/12/29 07:35:07;;;;;;;10.67;1.90;;;;;;;;;;5063917;28;20050;-66
2022/12/29 07:37:33;;;;;;;13.70;2.53;;;;;;;;;;5066041;28;20052;-66
2022/12/29 07:39:59;;;;;;;11.70;2.47;;;;;;;;;;5048545;28;20045;-65
2022/12/29 07:42:25;;;;;;;11.00;1.97;;;;;;;;;;5056716;28;20402;-65
2022/12/29 07:44:51;;;;;;;11.27;1.87;;;;;;;;;;5053600;28;20049;-66
2022/12/29 07:47:17;;;;;;;12.13;2.50;;;;;;;;;;5060189;28;20045;-65
2022/12/29 07:49:43;;;;;;;12.77;2.83;;;;;;;;;;5056567;28;20094;-65
2022/12/29 07:52:09;;;;;;;15.40;2.60;;;;;;;;;;5058735;28;20075;-65
2022/12/29 07:54:35;;;;;;;15.87;2.07;;;;;;;;;;5070182;28;20049;-65
2022/12/29 07:57:01;;;;;;;8.20;1.60;;;;;;;;;;5070746;28;20054;-65
2022/12/29 07:59:27;;;;;;;17.03;2.60;;;;;;;;;;5069979;28;20048;-66
2022/12/29 08:01:53;;;;;;;9.93;2.73;;;;;;;;;;5060127;28;20129;-65
2022/12/29 08:04:19;;;;;;;17.33;3.60;;;;;;;;;;5054108;28;20040;-65
2022/12/29 08:06:45;;;;;;;15.73;2.20;;;;;;;;;;5071580;28;20043;-65
2022/12/29 08:09:11;;;;;;;15.53;3.43;;;;;;;;;;5070446;28;20037;-65
2022/12/29 08:11:38;;;;;;;14.63;2.97;;;;;;;;;;5071056;28;20473;-65
2022/12/29 08:14:04;;;;;;;9.47;3.17;;;;;;;;;;5069585;28;20047;-65
2022/12/29 08:16:30;;;;;;;12.70;2.93;;;;;;;;;;5054273;28;20055;-65
2022/12/29 08:18:57;;;;;;;13.80;2.80;;;;;;;;;;5071138;28;20686;-65
2022/12/29 08:21:23;;;;;;;17.70;3.37;;;;;;;;;;5069681;28;20127;-65
2022/12/29 08:23:49;;;;;;;14.00;2.43;;;;;;;;;;5070552;28;20119;-65
2022/12/29 08:26:15;;;;;;;17.00;2.90;;;;;;;;;;5065504;28;20116;-64
2022/12/29 08:28:41;;;;;;;14.63;2.10;;;;;;;;;;5052403;28;20465;-65
2022/12/29 08:31:07;;;;;;;16.87;2.50;;;;;;;;;;5061482;28;20047;-65
2022/12/29 08:33:33;;;;;;;14.73;2.20;;;;;;;;;;5063288;28;20457;-64
2022/12/29 08:36:03;;;;;;;13.20;2.33;;;;;;;;;;5070048;28;20051;-64
2022/12/29 08:38:29;;;;;;;12.87;2.73;;;;;;;;;;5069995;28;20094;-65
2022/12/29 08:40:56;;;;;;;8.33;2.20;;;;;;;;;;5068269;28;20037;-64
2022/12/29 08:43:22;;;;;;;14.30;2.83;;;;;;;;;;5069145;28;20135;-64
2022/12/29 08:45:48;;;;;;;11.00;3.37;;;;;;;;;;5068153;28;20451;-65
2022/12/29 08:48:18;;;;;;;11.80;2.13;;;;;;;;;;5067360;28;20693;-65
2022/12/29 08:50:44;;;;;;;13.70;2.63;;;;;;;;;;5050371;28;20511;-65
2022/12/29 08:53:10;;;;;;;9.47;2.87;;;;;;;;;;5050708;28;20037;-65
2022/12/29 08:55:36;;;;;;;9.77;2.77;;;;;;;;;;5049814;28;20048;-64
2022/12/29 08:58:02;;;;;;;9.17;1.97;;;;;;;;;;5050006;28;20045;-64
2022/12/29 09:00:28;;;;;;;9.67;1.83;;;;;;;;;;5050438;28;20037;-64
2022/12/29 09:02:54;;;;;;;9.97;1.93;;;;;;;;;;5049675;28;20049;-64
2022/12/29 09:05:20;;;;;;;16.40;3.20;;;;;;;;;;5050556;28;20961;-63
2022/12/29 09:07:46;;;;;;;10.83;2.07;;;;;;;;;;5033194;28;20491;-64
2022/12/29 09:10:12;;;;;;;11.70;2.00;;;;;;;;;;5050320;28;20045;-64
2022/12/29 09:12:38;;;;;;;10.97;3.80;;;;;;;;;;5067236;28;20403;-65
2022/12/29 09:15:05;;;;;;;15.60;4.17;;;;;;;;;;5069514;28;20071;-64
2022/12/29 09:17:44;;;;;;;14.47;2.13;;;;;;;;;;5065747;28;20048;-64
2022/12/29 09:20:10;;;;;;;17.10;3.40;;;;;;;;;;5054272;28;20045;-64
2022/12/29 09:22:37;;;;;;;14.97;2.53;;;;;;;;;;5059636;28;20506;-64
2022/12/29 09:25:03;;;;;;;15.23;2.57;;;;;;;;;;5068537;28;20044;-65
2022/12/29 09:27:30;;;;;;;19.37;2.83;;;;;;;;;;5049832;28;20045;-64
2022/12/29 09:29:56;;;;;;;9.80;2.30;;;;;;;;;;5065681;28;20397;-64
2022/12/29 09:32:22;;;;;;;9.67;1.50;;;;;;;;;;5052192;28;20041;-65
2022/12/29 09:34:48;;;;;;;12.50;2.27;;;;;;;;;;5049781;28;20037;-64
2022/12/29 09:37:14;;;;;;;13.23;3.47;;;;;;;;;;5049208;28;20047;-64
2022/12/29 09:39:40;;;;;;;9.83;2.17;;;;;;;;;;5051295;28;20116;-64
2022/12/29 09:42:12;;;;;;;13.20;2.33;;;;;;;;;;5062448;28;20044;-64
2022/12/29 09:44:44;;;;;;;10.90;2.37;;;;;;;;;;5057518;28;20140;-64
2022/12/29 09:47:11;;;;;;;8.40;2.63;;;;;;;;;;5056905;28;20044;-64
2022/12/29 09:49:46;;;;;;;10.93;2.07;;;;;;;;;;5067712;28;20131;-65
2022/12/29 09:52:18;;;;;;;12.90;2.67;;;;;;;;;;5069352;28;20411;-64
2022/12/29 09:54:44;;;;;;;16.60;3.53;;;;;;;;;;5068713;28;20064;-65
2022/12/29 09:57:20;;;;;;;17.20;2.63;;;;;;;;;;5065421;28;20287;-65
2022/12/29 09:59:49;;;;;;;9.53;2.57;;;;;;;;;;5067463;28;20102;-64
2022/12/29 10:02:24;;;;;;;10.47;3.40;;;;;;;;;;5064333;28;20073;-65
2022/12/29 10:04:50;;;;;;;12.87;2.87;;;;;;;;;;5060557;28;20060;-65
2022/12/29 10:07:16;;;;;;;13.07;2.63;;;;;;;;;;5032092;28;20081;-65
2022/12/29 10:09:48;;;;;;;9.57;2.83;;;;;;;;;;5052274;28;21070;-67
2022/12/29 10:12:37;;;;;;;9.07;2.20;;;;;;;;;;5058043;28;20163;-65
2022/12/29 10:15:09;;;;;;;9.63;2.23;;;;;;;;;;5066631;28;20049;-66
2022/12/29 10:17:38;;;;;;;10.50;2.53;;;;;;;;;;5067656;28;20052;-65
2022/12/29 10:20:04;;;;;;;15.13;2.20;;;;;;;;;;5068905;28;20052;-65
2022/12/29 10:22:30;;;;;;;16.47;2.80;;;;;;;;;;5063544;28;20049;-65
2022/12/29 10:24:56;;;;;;;16.23;2.00;;;;;;;;;;5056018;28;20048;-65
2022/12/29 10:27:23;;;;;;;12.20;2.57;;;;;;;;;;5058362;28;20055;-65
2022/12/29 10:29:52;;;;;;;10.77;2.50;;;;;;;;;;5067769;28;20167;-65
2022/12/29 10:32:32;;;;;;;10.37;2.03;;;;;;;;;;5065222;28;20417;-65
2022/12/29 10:35:21;;;;;;;9.67;2.10;;;;;;;;;;5067986;28;20083;-65
2022/12/29 10:37:57;;;;;;;10.37;2.50;;;;;;;;;;5064939;28;20076;-65
2022/12/29 10:40:46;;;;;;;11.13;2.23;;;;;;;;;;5058107;28;20050;-65
2022/12/29 10:43:21;;;;;;;12.47;2.87;;;;;;;;;;5036466;28;20052;-65
2022/12/29 10:45:48;;;;;;;9.10;2.17;;;;;;;;;;5065999;28;20135;-65
2022/12/29 10:48:19;;;;;;;14.00;2.00;;;;;;;;;;5062054;28;20055;-65
2022/12/29 10:50:46;;;;;;;11.13;1.93;;;;;;;;;;5066452;28;20184;-65
2022/12/29 10:53:16;;;;;;;9.03;2.27;;;;;;;;;;5061727;28;20123;-65
2022/12/29 10:55:43;;;;;;;7.60;1.90;;;;;;;;;;5068794;28;20067;-65
2022/12/29 10:58:11;;;;;;;11.23;2.40;;;;;;;;;;5066708;28;20498;-65
2022/12/29 11:00:37;;;;;;;10.23;2.13;;;;;;;;;;5067723;28;20048;-65
2022/12/29 11:03:20;;;;;;;11.53;2.20;;;;;;;;;;5067093;28;20132;-66
2022/12/29 11:05:49;;;;;;;8.23;1.90;;;;;;;;;;5066157;28;20049;-65
2022/12/29 11:08:17;;;;;;;10.83;2.40;;;;;;;;;;5066067;28;20060;-66
2022/12/29 11:10:44;;;;;;;13.03;2.70;;;;;;;;;;5061523;28;20049;-66
2022/12/29 11:13:17;;;;;;;13.53;2.40;;;;;;;;;;5062969;28;20045;-65
2022/12/29 11:15:47;;;;;;;13.95;2.35;;;;;;;;;;5059833;28;20498;-65
2022/12/29 11:18:37;;;;;;;12.60;2.43;;;;;;;;;;5064692;28;20036;-65
2022/12/29 11:21:04;;;;;;;9.50;2.73;;;;;;;;;;5059920;28;20056;-65
2022/12/29 11:23:34;;;;;;;18.77;3.07;;;;;;;;;;5066991;28;20055;-65
2022/12/29 11:26:13;;;;;;;15.97;2.70;;;;;;;;;;5068731;28;20155;-65
2022/12/29 11:28:39;;;;;;;14.50;3.13;;;;;;;;;;5067959;28;20056;-66
2022/12/29 11:31:06;;;;;;;14.23;3.83;;;;;;;;;;5062969;28;20094;-67
2022/12/29 11:33:34;;;;;;;17.13;4.40;;;;;;;;;;5070711;28;20044;-66
2022/12/29 11:36:04;;;;;;;17.60;3.70;;;;;;;;;;5071682;28;20049;-66
2022/12/29 11:38:34;;;;;;;14.53;3.70;;;;;;;;;;5070897;28;20051;-66
2022/12/29 11:41:00;;;;;;;11.30;3.77;;;;;;;;;;5070560;28;20045;-66
2022/12/29 11:43:33;;;;;;;19.77;3.43;;;;;;;;;;5066650;28;20094;-65
2022/12/29 11:46:02;;;;;;;17.48;3.78;;;;;;;;;;5055973;28;20548;-66
2022/12/29 11:48:29;;;;;;;17.57;4.37;;;;;;;;;;5071445;28;20491;-66
2022/12/29 11:50:59;;;;;;;19.93;3.90;;;;;;;;;;5070862;28;20059;-66
2022/12/29 11:53:27;;;;;;;18.33;4.03;;;;;;;;;;5069425;28;20483;-66
2022/12/29 11:55:53;;;;;;;16.70;3.73;;;;;;;;;;5060926;28;20041;-66
2022/12/29 11:58:19;;;;;;;18.87;5.17;;;;;;;;;;5071049;28;20503;-66
2022/12/29 12:00:46;;;;;;;20.50;3.83;;;;;;;;;;5062035;28;20041;-66
2022/12/29 12:03:16;;;;;;;15.00;3.93;;;;;;;;;;5053063;28;20052;-66
2022/12/29 12:05:42;;;;;;;21.50;3.73;;;;;;;;;;5065277;28;20374;-66
2022/12/29 12:08:08;;;;;;;15.53;3.57;;;;;;;;;;5064939;28;20410;-66
2022/12/29 12:10:44;;;;;;;16.07;3.10;;;;;;;;;;5055548;28;20048;-66
2022/12/29 12:13:29;;;;;;;17.27;3.40;;;;;;;;;;5053728;28;20072;-66
2022/12/29 12:15:59;;;;;;;15.00;3.43;;;;;;;;;;5051833;28;20449;-66
2022/12/29 12:18:32;;;;;;;21.47;4.13;;;;;;;;;;5065717;28;20052;-66
2022/12/29 12:21:04;;;;;;;14.57;3.63;;;;;;;;;;5066666;28;20041;-67
2022/12/29 12:23:36;;;;;;;52.83;6.57;;;;;;;;;;5069409;28;20040;-68
2022/12/29 12:26:05;;;;;;;28.03;3.17;;;;;;;;;;5069569;28;20048;-68
2022/12/29 12:28:37;;;;;;;21.83;2.93;;;;;;;;;;5070811;28;20056;-67
2022/12/29 12:31:05;;;;;;;19.27;5.33;;;;;;;;;;5061092;28;20049;-67
2022/12/29 12:33:39;;;;;;;17.77;4.07;;;;;;;;;;5064126;28;20044;-66
2022/12/29 12:36:08;;;;;;;22.17;5.27;;;;;;;;;;5061236;28;20362;-66
2022/12/29 12:39:10;;;;;;;21.63;4.93;;;;;;;;;;5063866;28;20057;-66
2022/12/29 12:41:50;;;;;;;18.77;3.70;;;;;;;;;;5011531;28;20049;-66
2022/12/29 12:44:22;;;;;;;19.30;3.73;;;;;;;;;;5060592;28;20947;-66
2022/12/29 12:46:58;;;;;;;20.40;4.10;;;;;;;;;;5068447;28;20414;-66
2022/12/29 12:49:40;;;;;;;26.73;4.90;;;;;;;;;;5066736;28;20121;-66
2022/12/29 12:52:06;;;;;;;22.90;5.03;;;;;;;;;;5069643;28;20129;-66
2022/12/29 12:54:51;;;;;;;24.57;4.63;;;;;;;;;;5069889;28;20495;-66
2022/12/29 12:57:37;;;;;;;26.70;5.37;;;;;;;;;;5069428;28;20067;-66
2022/12/29 13:00:06;;;;;;;22.37;4.17;;;;;;;;;;5066631;28;20498;-65
2022/12/29 13:02:40;;;;;;;22.77;4.83;;;;;;;;;;5057510;28;20036;-65
2022/12/29 13:05:25;;;;;;;34.47;5.70;;;;;;;;;;5062329;28;20056;-66
2022/12/29 13:08:09;;;;;;;23.87;5.47;;;;;;;;;;5060849;28;20084;-66
2022/12/29 13:10:35;;;;;;;22.43;4.20;;;;;;;;;;5062083;28;20043;-66
2022/12/29 13:13:16;;;;;;;22.40;4.93;;;;;;;;;;5070500;28;20041;-66
2022/12/29 13:15:54;;;;;;;18.77;3.80;;;;;;;;;;5049130;28;20045;-66
2022/12/29 13:18:35;;;;;;;34.53;5.13;;;;;;;;;;5061259;28;20447;-66
2022/12/29 13:21:07;;;;;;;26.73;4.57;;;;;;;;;;5056518;28;20470;-66
2022/12/29 13:23:41;;;;;;;16.73;3.30;;;;;;;;;;5039794;28;20052;-67
2022/12/29 13:26:16;;;;;;;20.67;4.47;;;;;;;;;;5068099;28;20287;-66
2022/12/29 13:29:01;;;;;;;20.63;3.13;;;;;;;;;;5050110;28;20045;-66
2022/12/29 13:31:33;;;;;;;16.83;4.20;;;;;;;;;;5063547;28;20194;-66
2022/12/29 13:34:06;;;;;;;20.17;4.20;;;;;;;;;;5067406;28;20526;-66
2022/12/29 13:36:38;;;;;;;19.60;3.63;;;;;;;;;;5059810;28;20080;-66
2022/12/29 13:39:13;;;;;;;22.90;3.87;;;;;;;;;;5064542;28;20055;-66
2022/12/29 13:41:53;;;;;;;23.97;3.57;;;;;;;;;;5066555;28;20048;-66
2022/12/29 13:44:24;;;;;;;17.57;3.70;;;;;;;;;;5058038;28;20043;-66
2022/12/29 13:46:51;;;;;;;19.77;3.40;;;;;;;;;;5063302;28;20052;-66
2022/12/29 13:49:21;;;;;;;20.03;4.40;;;;;;;;;;5061480;28;20052;-66
2022/12/29 13:51:56;;;;;;;26.03;4.70;;;;;;;;;;5055095;28;20052;-66
2022/12/29 13:54:24;;;;;;;20.73;3.40;;;;;;;;;;5050623;28;20538;-66
2022/12/29 13:56:50;;;;;;;21.33;3.57;;;;;;;;;;5060966;28;20064;-66
2022/12/29 13:59:22;;;;;;;15.73;3.23;;;;;;;;;;5060110;28;20203;-66
2022/12/29 14:01:55;;;;;;;16.67;3.13;;;;;;;;;;5067548;28;20565;-66
2022/12/29 14:04:25;;;;;;;21.67;4.00;;;;;;;;;;5068337;28;20414;-66
2022/12/29 14:07:18;;;;;;;20.33;3.40;;;;;;;;;;5067423;28;20083;-66
2022/12/29 14:09:47;;;;;;;14.47;3.73;;;;;;;;;;5064201;28;20067;-66
2022/12/29 14:12:28;;;;;;;27.53;5.50;;;;;;;;;;5066783;28;20049;-66
2022/12/29 14:14:54;;;;;;;20.27;3.47;;;;;;;;;;5067128;28;20057;-66
2022/12/29 14:17:21;;;;;;;23.27;4.53;;;;;;;;;;5064548;28;20044;-66
2022/12/29 14:19:51;;;;;;;17.70;3.17;;;;;;;;;;5063256;28;20385;-66
2022/12/29 14:22:23;;;;;;;16.57;2.97;;;;;;;;;;5067926;28;20041;-66
2022/12/29 14:24:49;;;;;;;13.93;2.87;;;;;;;;;;5068254;28;20124;-66
2022/12/29 14:27:15;;;;;;;18.27;3.77;;;;;;;;;;5068233;28;20076;-66
2022/12/29 14:29:41;;;;;;;20.47;4.13;;;;;;;;;;5056316;28;20056;-66
2022/12/29 14:32:26;;;;;;;14.37;3.63;;;;;;;;;;5066225;28;20045;-66
2022/12/29 14:34:52;;;;;;;18.67;3.20;;;;;;;;;;5058940;28;20048;-66
2022/12/29 14:37:38;;;;;;;19.93;3.50;;;;;;;;;;5056281;28;20578;-66
2022/12/29 14:40:04;;;;;;;23.30;4.03;;;;;;;;;;5054081;28;20234;-66
2022/12/29 14:42:31;;;;;;;22.63;3.73;;;;;;;;;;5058976;28;20060;-66
2022/12/29 14:45:08;;;;;;;23.23;5.20;;;;;;;;;;5068508;28;20061;-66
2022/12/29 14:47:34;;;;;;;14.17;2.40;;;;;;;;;;5066723;28;20453;-66
2022/12/29 14:50:05;;;;;;;15.17;2.57;;;;;;;;;;5067829;28;20094;-66
2022/12/29 14:52:31;;;;;;;15.43;2.63;;;;;;;;;;5066878;28;20045;-66
2022/12/29 14:55:00;;;;;;;17.43;3.43;;;;;;;;;;5067651;28;20040;-65
2022/12/29 14:57:26;;;;;;;13.03;3.07;;;;;;;;;;5068252;28;20624;-66
2022/12/29 15:00:02;;;;;;;13.27;2.40;;;;;;;;;;5068184;28;20056;-66
2022/12/29 15:02:33;;;;;;;20.27;3.00;;;;;;;;;;5064721;28;20051;-66
2022/12/29 15:05:00;;;;;;;16.63;3.87;;;;;;;;;;5069669;28;20486;-65
2022/12/29 15:07:27;;;;;;;17.83;3.40;;;;;;;;;;5073535;28;20044;-65
2022/12/29 15:10:05;;;;;;;20.07;3.37;;;;;;;;;;5072865;28;20048;-65
2022/12/29 15:12:37;;;;;;;17.23;3.60;;;;;;;;;;5073003;28;20384;-65
2022/12/29 15:15:17;;;;;;;15.77;3.10;;;;;;;;;;5061701;28;20041;-65
2022/12/29 15:17:43;;;;;;;18.83;3.73;;;;;;;;;;5057948;28;20050;-65
2022/12/29 15:20:15;;;;;;;22.13;5.23;;;;;;;;;;5074112;28;20040;-65
2022/12/29 15:22:45;;;;;;;25.03;4.73;;;;;;;;;;5074862;28;20178;-65